sensor_id;sensor_type;location;lat;lon;timestamp;temperature;humidity
17033;DHT22;63208;52.178;21.016;2023-05-07T00:01:19;7.20;99.90
17033;DHT22;63208;52.178;21.016;2023-05-07T00:03:46;7.20;99.90
17033;DHT22;63208;52.178;21.016;2023-05-07T00:06:14;7.20;99.90
17033;DHT22;63208;52.178;21.016;2023-05-07T00:08:41;7.20;99.90
17033;DHT22;63208;52.178;21.016;2023-05-07T00:11:08;7.20;99.90
17033;DHT22;63208;52.178;21.016;2023-05-07T00:13:34;7.20;99.90
17033;DHT22;63208;52.178;21.016;2023-05-07T00:16:01;7.20;99.90
17033;DHT22;63208;52.178;21.016;2023-05-07T00:18:28;7.10;99.90
17033;DHT22;63208;52.178;21.016;2023-05-07T00:20:55;7.10;99.90
17033;DHT22;63208;52.178;21.016;2023-05-07T00:23:23;7.20;99.90
17033;DHT22;63208;52.178;21.016;2023-05-07T00:25:49;7.20;99.90
17033;DHT22;63208;52.178;21.016;2023-05-07T00:28:16;7.20;99.90
17033;DHT22;63208;52.178;21.016;2023-05-07T00:30:43;7.20;99.90
17033;DHT22;63208;52.178;21.016;2023-05-07T00:33:09;7.20;99.90
17033;DHT22;63208;52.178;21.016;2023-05-07T00:35:36;7.10;99.90
17033;DHT22;63208;52.178;21.016;2023-05-07T00:38:03;7.10;99.90
17033;DHT22;63208;52.178;21.016;2023-05-07T00:40:31;7.10;99.90
17033;DHT22;63208;52.178;21.016;2023-05-07T00:42:58;7.00;99.90
17033;DHT22;63208;52.178;21.016;2023-05-07T00:45:26;7.00;99.90
17033;DHT22;63208;52.178;21.016;2023-05-07T00:47:53;7.00;99.90
17033;DHT22;63208;52.178;21.016;2023-05-07T00:50:20;7.10;99.90
17033;DHT22;63208;52.178;21.016;2023-05-07T00:52:47;7.00;99.90
17033;DHT22;63208;52.178;21.016;2023-05-07T00:55:14;7.10;99.90
17033;DHT22;63208;52.178;21.016;2023-05-07T00:57:42;7.00;99.90
17033;DHT22;63208;52.178;21.016;2023-05-07T01:00:09;7.00;99.90
17033;DHT22;63208;52.178;21.016;2023-05-07T01:02:37;6.90;99.90
17033;DHT22;63208;52.178;21.016;2023-05-07T01:05:04;6.80;99.90
17033;DHT22;63208;52.178;21.016;2023-05-07T01:07:32;6.90;99.90
17033;DHT22;63208;52.178;21.016;2023-05-07T01:09:59;6.90;99.90
17033;DHT22;63208;52.178;21.016;2023-05-07T01:12:26;6.90;99.90
17033;DHT22;63208;52.178;21.016;2023-05-07T01:14:55;6.90;99.90
17033;DHT22;63208;52.178;21.016;2023-05-07T01:17:21;6.90;99.90
17033;DHT22;63208;52.178;21.016;2023-05-07T01:19:48;6.80;99.90
17033;DHT22;63208;52.178;21.016;2023-05-07T01:22:16;6.80;99.90
17033;DHT22;63208;52.178;21.016;2023-05-07T01:24:44;6.60;99.90
17033;DHT22;63208;52.178;21.016;2023-05-07T01:27:11;6.60;99.90
17033;DHT22;63208;52.178;21.016;2023-05-07T01:29:38;6.70;99.90
17033;DHT22;63208;52.178;21.016;2023-05-07T01:32:05;6.60;99.90
17033;DHT22;63208;52.178;21.016;2023-05-07T01:34:32;6.70;99.90
17033;DHT22;63208;52.178;21.016;2023-05-07T01:36:59;6.70;99.90
17033;DHT22;63208;52.178;21.016;2023-05-07T01:39:27;6.60;99.90
17033;DHT22;63208;52.178;21.016;2023-05-07T01:41:56;6.70;99.90
17033;DHT22;63208;52.178;21.016;2023-05-07T01:44:22;6.70;99.90
17033;DHT22;63208;52.178;21.016;2023-05-07T01:46:50;6.70;99.90
17033;DHT22;63208;52.178;21.016;2023-05-07T01:49:16;6.70;99.90
17033;DHT22;63208;52.178;21.016;2023-05-07T01:51:43;6.70;99.90
17033;DHT22;63208;52.178;21.016;2023-05-07T01:54:10;6.60;99.90
17033;DHT22;63208;52.178;21.016;2023-05-07T01:56:37;6.60;99.90
17033;DHT22;63208;52.178;21.016;2023-05-07T01:59:05;6.60;99.90
17033;DHT22;63208;52.178;21.016;2023-05-07T02:01:32;6.60;99.90
17033;DHT22;63208;52.178;21.016;2023-05-07T02:03:58;6.60;99.90
17033;DHT22;63208;52.178;21.016;2023-05-07T02:06:25;6.70;99.90
17033;DHT22;63208;52.178;21.016;2023-05-07T02:08:52;6.60;99.90
17033;DHT22;63208;52.178;21.016;2023-05-07T02:11:18;6.60;99.90
17033;DHT22;63208;52.178;21.016;2023-05-07T02:13:45;6.60;99.90
17033;DHT22;63208;52.178;21.016;2023-05-07T02:16:13;6.60;99.90
17033;DHT22;63208;52.178;21.016;2023-05-07T02:18:40;6.60;99.90
17033;DHT22;63208;52.178;21.016;2023-05-07T02:21:07;6.60;99.90
17033;DHT22;63208;52.178;21.016;2023-05-07T02:23:33;6.70;99.90
17033;DHT22;63208;52.178;21.016;2023-05-07T02:26:00;6.60;99.90
17033;DHT22;63208;52.178;21.016;2023-05-07T02:28:27;6.60;99.90
17033;DHT22;63208;52.178;21.016;2023-05-07T02:30:54;6.60;99.90
17033;DHT22;63208;52.178;21.016;2023-05-07T02:33:22;6.60;99.90
17033;DHT22;63208;52.178;21.016;2023-05-07T02:35:48;6.60;99.90
17033;DHT22;63208;52.178;21.016;2023-05-07T02:38:17;6.60;99.90
17033;DHT22;63208;52.178;21.016;2023-05-07T02:40:44;6.60;99.90
17033;DHT22;63208;52.178;21.016;2023-05-07T02:43:10;6.60;99.90
17033;DHT22;63208;52.178;21.016;2023-05-07T02:45:37;6.60;99.90
17033;DHT22;63208;52.178;21.016;2023-05-07T02:48:04;6.60;99.90
17033;DHT22;63208;52.178;21.016;2023-05-07T02:50:33;6.50;99.90
17033;DHT22;63208;52.178;21.016;2023-05-07T02:53:00;6.60;99.90
17033;DHT22;63208;52.178;21.016;2023-05-07T02:55:26;6.60;99.90
17033;DHT22;63208;52.178;21.016;2023-05-07T02:57:53;6.60;99.90
17033;DHT22;63208;52.178;21.016;2023-05-07T03:00:20;6.70;99.90
17033;DHT22;63208;52.178;21.016;2023-05-07T03:02:47;6.70;99.90
17033;DHT22;63208;52.178;21.016;2023-05-07T03:05:13;6.60;99.90
17033;DHT22;63208;52.178;21.016;2023-05-07T03:07:41;6.60;99.90
17033;DHT22;63208;52.178;21.016;2023-05-07T03:10:10;6.60;99.90
17033;DHT22;63208;52.178;21.016;2023-05-07T03:12:37;6.60;99.90
17033;DHT22;63208;52.178;21.016;2023-05-07T03:15:04;6.70;99.90
17033;DHT22;63208;52.178;21.016;2023-05-07T03:17:31;6.70;99.90
17033;DHT22;63208;52.178;21.016;2023-05-07T03:19:58;6.60;99.90
17033;DHT22;63208;52.178;21.016;2023-05-07T03:22:25;6.60;99.90
17033;DHT22;63208;52.178;21.016;2023-05-07T03:24:53;6.60;99.90
17033;DHT22;63208;52.178;21.016;2023-05-07T03:27:19;6.70;99.90
17033;DHT22;63208;52.178;21.016;2023-05-07T03:29:46;6.70;99.90
17033;DHT22;63208;52.178;21.016;2023-05-07T03:32:13;6.70;99.90
17033;DHT22;63208;52.178;21.016;2023-05-07T03:34:39;6.70;99.90
17033;DHT22;63208;52.178;21.016;2023-05-07T03:37:06;6.70;99.90
17033;DHT22;63208;52.178;21.016;2023-05-07T03:39:33;6.60;99.90
17033;DHT22;63208;52.178;21.016;2023-05-07T03:42:01;6.60;99.90
17033;DHT22;63208;52.178;21.016;2023-05-07T03:44:29;6.60;99.90
17033;DHT22;63208;52.178;21.016;2023-05-07T03:46:55;6.60;99.90
17033;DHT22;63208;52.178;21.016;2023-05-07T03:49:22;6.60;99.90
17033;DHT22;63208;52.178;21.016;2023-05-07T03:51:49;6.60;99.90
17033;DHT22;63208;52.178;21.016;2023-05-07T03:54:15;6.60;99.90
17033;DHT22;63208;52.178;21.016;2023-05-07T03:56:42;6.70;99.90
17033;DHT22;63208;52.178;21.016;2023-05-07T03:59:10;6.70;99.90
17033;DHT22;63208;52.178;21.016;2023-05-07T04:01:37;6.70;99.90
17033;DHT22;63208;52.178;21.016;2023-05-07T04:04:03;6.70;99.90
17033;DHT22;63208;52.178;21.016;2023-05-07T04:06:30;6.70;99.90
17033;DHT22;63208;52.178;21.016;2023-05-07T04:08:57;6.60;99.90
17033;DHT22;63208;52.178;21.016;2023-05-07T04:11:24;6.70;99.90
17033;DHT22;63208;52.178;21.016;2023-05-07T04:13:51;6.70;99.90
17033;DHT22;63208;52.178;21.016;2023-05-07T04:16:19;6.70;99.90
17033;DHT22;63208;52.178;21.016;2023-05-07T04:18:46;6.70;99.90
17033;DHT22;63208;52.178;21.016;2023-05-07T04:21:15;6.70;99.90
17033;DHT22;63208;52.178;21.016;2023-05-07T04:23:42;6.60;99.90
17033;DHT22;63208;52.178;21.016;2023-05-07T04:26:09;6.60;99.90
17033;DHT22;63208;52.178;21.016;2023-05-07T04:28:36;6.70;99.90
17033;DHT22;63208;52.178;21.016;2023-05-07T04:31:03;6.60;99.90
17033;DHT22;63208;52.178;21.016;2023-05-07T04:33:31;6.70;99.90
17033;DHT22;63208;52.178;21.016;2023-05-07T04:36:01;6.70;99.90
17033;DHT22;63208;52.178;21.016;2023-05-07T04:38:29;6.70;99.90
17033;DHT22;63208;52.178;21.016;2023-05-07T04:40:56;6.80;99.90
17033;DHT22;63208;52.178;21.016;2023-05-07T04:43:22;6.80;99.90
17033;DHT22;63208;52.178;21.016;2023-05-07T04:45:50;6.80;99.90
17033;DHT22;63208;52.178;21.016;2023-05-07T04:48:17;6.80;99.90
17033;DHT22;63208;52.178;21.016;2023-05-07T04:50:46;6.70;99.90
17033;DHT22;63208;52.178;21.016;2023-05-07T04:53:13;6.70;99.90
17033;DHT22;63208;52.178;21.016;2023-05-07T04:55:40;6.70;99.90
17033;DHT22;63208;52.178;21.016;2023-05-07T04:58:07;6.70;99.90
17033;DHT22;63208;52.178;21.016;2023-05-07T05:00:34;6.70;99.90
17033;DHT22;63208;52.178;21.016;2023-05-07T05:03:00;6.70;99.90
17033;DHT22;63208;52.178;21.016;2023-05-07T05:05:27;6.80;99.90
17033;DHT22;63208;52.178;21.016;2023-05-07T05:07:55;6.70;99.90
17033;DHT22;63208;52.178;21.016;2023-05-07T05:10:22;6.80;99.90
17033;DHT22;63208;52.178;21.016;2023-05-07T05:12:48;6.80;99.90
17033;DHT22;63208;52.178;21.016;2023-05-07T05:15:15;6.90;99.90
17033;DHT22;63208;52.178;21.016;2023-05-07T05:17:42;7.00;99.90
17033;DHT22;63208;52.178;21.016;2023-05-07T05:20:09;6.90;99.90
17033;DHT22;63208;52.178;21.016;2023-05-07T05:22:37;6.90;99.90
17033;DHT22;63208;52.178;21.016;2023-05-07T05:25:05;6.90;99.90
17033;DHT22;63208;52.178;21.016;2023-05-07T05:27:32;6.90;99.90
17033;DHT22;63208;52.178;21.016;2023-05-07T05:29:58;7.00;99.90
17033;DHT22;63208;52.178;21.016;2023-05-07T05:32:25;7.10;99.90
17033;DHT22;63208;52.178;21.016;2023-05-07T05:34:52;7.10;99.90
17033;DHT22;63208;52.178;21.016;2023-05-07T05:37:18;7.10;99.90
17033;DHT22;63208;52.178;21.016;2023-05-07T05:39:45;7.30;99.90
17033;DHT22;63208;52.178;21.016;2023-05-07T05:42:14;7.30;99.90
17033;DHT22;63208;52.178;21.016;2023-05-07T05:44:40;7.40;99.90
17033;DHT22;63208;52.178;21.016;2023-05-07T05:47:07;7.40;99.90
17033;DHT22;63208;52.178;21.016;2023-05-07T05:49:34;7.50;99.90
17033;DHT22;63208;52.178;21.016;2023-05-07T05:52:00;7.50;99.90
17033;DHT22;63208;52.178;21.016;2023-05-07T05:54:27;7.50;99.90
17033;DHT22;63208;52.178;21.016;2023-05-07T05:56:54;7.60;99.90
17033;DHT22;63208;52.178;21.016;2023-05-07T05:59:22;7.50;99.90
17033;DHT22;63208;52.178;21.016;2023-05-07T06:01:49;7.50;99.90
17033;DHT22;63208;52.178;21.016;2023-05-07T06:04:15;7.50;99.90
17033;DHT22;63208;52.178;21.016;2023-05-07T06:06:42;7.50;99.90
17033;DHT22;63208;52.178;21.016;2023-05-07T06:09:09;7.60;99.90
17033;DHT22;63208;52.178;21.016;2023-05-07T06:11:35;7.70;99.90
17033;DHT22;63208;52.178;21.016;2023-05-07T06:14:02;7.70;99.90
17033;DHT22;63208;52.178;21.016;2023-05-07T06:16:30;7.70;99.90
17033;DHT22;63208;52.178;21.016;2023-05-07T06:18:57;7.80;99.90
17033;DHT22;63208;52.178;21.016;2023-05-07T06:21:24;7.80;99.90
17033;DHT22;63208;52.178;21.016;2023-05-07T06:23:50;7.90;99.90
17033;DHT22;63208;52.178;21.016;2023-05-07T06:26:17;7.90;99.90
17033;DHT22;63208;52.178;21.016;2023-05-07T06:28:44;8.00;99.90
17033;DHT22;63208;52.178;21.016;2023-05-07T06:31:11;8.00;99.90
17033;DHT22;63208;52.178;21.016;2023-05-07T06:33:40;8.00;99.90
17033;DHT22;63208;52.178;21.016;2023-05-07T06:36:06;8.10;99.90
17033;DHT22;63208;52.178;21.016;2023-05-07T06:38:33;8.20;99.90
17033;DHT22;63208;52.178;21.016;2023-05-07T06:41:00;8.20;99.90
17033;DHT22;63208;52.178;21.016;2023-05-07T06:43:26;8.30;99.90
17033;DHT22;63208;52.178;21.016;2023-05-07T06:45:53;8.40;99.90
17033;DHT22;63208;52.178;21.016;2023-05-07T06:48:20;8.30;99.90
17033;DHT22;63208;52.178;21.016;2023-05-07T06:50:48;8.40;99.90
17033;DHT22;63208;52.178;21.016;2023-05-07T06:53:15;8.30;99.90
17033;DHT22;63208;52.178;21.016;2023-05-07T06:55:41;8.30;99.90
17033;DHT22;63208;52.178;21.016;2023-05-07T06:58:08;8.30;99.90
17033;DHT22;63208;52.178;21.016;2023-05-07T07:00:35;8.30;99.90
17033;DHT22;63208;52.178;21.016;2023-05-07T07:03:02;8.20;99.90
17033;DHT22;63208;52.178;21.016;2023-05-07T07:05:28;8.30;99.90
17033;DHT22;63208;52.178;21.016;2023-05-07T07:07:56;8.30;99.90
17033;DHT22;63208;52.178;21.016;2023-05-07T07:10:23;8.40;99.90
17033;DHT22;63208;52.178;21.016;2023-05-07T07:12:50;8.40;99.90
17033;DHT22;63208;52.178;21.016;2023-05-07T07:15:17;8.40;99.90
17033;DHT22;63208;52.178;21.016;2023-05-07T07:17:45;8.40;99.90
17033;DHT22;63208;52.178;21.016;2023-05-07T07:20:12;8.40;99.90
17033;DHT22;63208;52.178;21.016;2023-05-07T07:22:39;8.40;99.90
17033;DHT22;63208;52.178;21.016;2023-05-07T07:25:08;8.40;99.90
17033;DHT22;63208;52.178;21.016;2023-05-07T07:27:34;8.50;99.90
17033;DHT22;63208;52.178;21.016;2023-05-07T07:30:01;8.50;99.90
17033;DHT22;63208;52.178;21.016;2023-05-07T07:32:28;8.60;99.90
17033;DHT22;63208;52.178;21.016;2023-05-07T07:34:55;8.60;99.90
17033;DHT22;63208;52.178;21.016;2023-05-07T07:37:21;8.70;99.90
17033;DHT22;63208;52.178;21.016;2023-05-07T07:39:48;8.70;99.90
17033;DHT22;63208;52.178;21.016;2023-05-07T07:42:16;8.80;99.90
17033;DHT22;63208;52.178;21.016;2023-05-07T07:44:43;8.80;99.90
17033;DHT22;63208;52.178;21.016;2023-05-07T07:47:10;8.80;99.90
17033;DHT22;63208;52.178;21.016;2023-05-07T07:49:37;8.80;99.90
17033;DHT22;63208;52.178;21.016;2023-05-07T07:52:03;9.00;99.90
17033;DHT22;63208;52.178;21.016;2023-05-07T07:54:30;8.90;99.90
17033;DHT22;63208;52.178;21.016;2023-05-07T07:56:57;9.00;99.90
17033;DHT22;63208;52.178;21.016;2023-05-07T07:59:25;9.00;99.90
17033;DHT22;63208;52.178;21.016;2023-05-07T08:01:52;9.10;99.90
17033;DHT22;63208;52.178;21.016;2023-05-07T08:04:21;9.10;99.90
17033;DHT22;63208;52.178;21.016;2023-05-07T08:06:47;7.50;99.90
17033;DHT22;63208;52.178;21.016;2023-05-07T08:09:14;8.90;99.90
17033;DHT22;63208;52.178;21.016;2023-05-07T08:11:41;9.00;99.90
17033;DHT22;63208;52.178;21.016;2023-05-07T08:14:08;9.10;99.90
17033;DHT22;63208;52.178;21.016;2023-05-07T08:16:36;9.20;99.90
17033;DHT22;63208;52.178;21.016;2023-05-07T08:19:02;9.30;99.90
17033;DHT22;63208;52.178;21.016;2023-05-07T08:21:29;9.40;99.90
17033;DHT22;63208;52.178;21.016;2023-05-07T08:23:56;9.50;99.90
17033;DHT22;63208;52.178;21.016;2023-05-07T08:26:23;9.40;99.90
17033;DHT22;63208;52.178;21.016;2023-05-07T08:28:50;9.30;99.90
17033;DHT22;63208;52.178;21.016;2023-05-07T08:31:16;9.40;99.90
17033;DHT22;63208;52.178;21.016;2023-05-07T08:33:45;9.40;99.90
17033;DHT22;63208;52.178;21.016;2023-05-07T08:36:11;9.30;99.90
17033;DHT22;63208;52.178;21.016;2023-05-07T08:38:38;9.40;99.90
17033;DHT22;63208;52.178;21.016;2023-05-07T08:41:05;9.30;99.90
17033;DHT22;63208;52.178;21.016;2023-05-07T08:43:33;9.30;99.90
17033;DHT22;63208;52.178;21.016;2023-05-07T08:46:01;9.40;99.90
17033;DHT22;63208;52.178;21.016;2023-05-07T08:48:28;9.40;99.90
17033;DHT22;63208;52.178;21.016;2023-05-07T08:50:57;9.50;99.90
17033;DHT22;63208;52.178;21.016;2023-05-07T08:53:24;9.50;99.90
17033;DHT22;63208;52.178;21.016;2023-05-07T08:55:51;9.50;99.90
17033;DHT22;63208;52.178;21.016;2023-05-07T08:58:17;9.70;99.90
17033;DHT22;63208;52.178;21.016;2023-05-07T09:00:44;9.70;99.90
17033;DHT22;63208;52.178;21.016;2023-05-07T09:03:11;9.70;99.90
17033;DHT22;63208;52.178;21.016;2023-05-07T09:05:38;9.70;99.90
17033;DHT22;63208;52.178;21.016;2023-05-07T09:08:06;9.70;99.90
17033;DHT22;63208;52.178;21.016;2023-05-07T09:10:33;9.70;99.90
17033;DHT22;63208;52.178;21.016;2023-05-07T09:13:00;9.70;99.90
17033;DHT22;63208;52.178;21.016;2023-05-07T09:15:28;9.60;99.90
17033;DHT22;63208;52.178;21.016;2023-05-07T09:17:56;9.70;99.90
17033;DHT22;63208;52.178;21.016;2023-05-07T09:20:26;9.80;99.90
17033;DHT22;63208;52.178;21.016;2023-05-07T09:22:54;10.00;99.90
17033;DHT22;63208;52.178;21.016;2023-05-07T09:25:28;10.00;99.90
17033;DHT22;63208;52.178;21.016;2023-05-07T09:27:55;10.10;99.90
17033;DHT22;63208;52.178;21.016;2023-05-07T09:30:22;10.30;99.90
17033;DHT22;63208;52.178;21.016;2023-05-07T09:32:49;10.50;99.90
17033;DHT22;63208;52.178;21.016;2023-05-07T09:35:16;10.50;99.90
17033;DHT22;63208;52.178;21.016;2023-05-07T09:37:43;10.50;99.90
17033;DHT22;63208;52.178;21.016;2023-05-07T09:40:19;10.50;99.90
17033;DHT22;63208;52.178;21.016;2023-05-07T09:42:54;10.50;99.90
17033;DHT22;63208;52.178;21.016;2023-05-07T09:45:21;10.60;99.90
17033;DHT22;63208;52.178;21.016;2023-05-07T09:47:49;10.60;99.90
17033;DHT22;63208;52.178;21.016;2023-05-07T09:50:16;10.50;99.90
17033;DHT22;63208;52.178;21.016;2023-05-07T09:52:43;10.50;99.90
17033;DHT22;63208;52.178;21.016;2023-05-07T09:55:10;10.50;99.90
17033;DHT22;63208;52.178;21.016;2023-05-07T09:57:37;10.50;99.90
17033;DHT22;63208;52.178;21.016;2023-05-07T10:00:07;10.50;99.90
17033;DHT22;63208;52.178;21.016;2023-05-07T10:02:35;10.30;99.90
17033;DHT22;63208;52.178;21.016;2023-05-07T10:05:03;10.20;99.90
17033;DHT22;63208;52.178;21.016;2023-05-07T10:07:29;10.10;99.90
17033;DHT22;63208;52.178;21.016;2023-05-07T10:09:56;10.00;99.90
17033;DHT22;63208;52.178;21.016;2023-05-07T10:12:24;10.00;99.90
17033;DHT22;63208;52.178;21.016;2023-05-07T10:14:50;10.10;99.90
17033;DHT22;63208;52.178;21.016;2023-05-07T10:17:22;10.20;99.90
17033;DHT22;63208;52.178;21.016;2023-05-07T10:19:49;10.20;99.90
17033;DHT22;63208;52.178;21.016;2023-05-07T10:22:17;10.40;99.90
17033;DHT22;63208;52.178;21.016;2023-05-07T10:24:47;10.50;99.90
17033;DHT22;63208;52.178;21.016;2023-05-07T10:27:15;10.50;99.90
17033;DHT22;63208;52.178;21.016;2023-05-07T10:29:45;10.40;99.90
17033;DHT22;63208;52.178;21.016;2023-05-07T10:32:24;10.30;99.90
17033;DHT22;63208;52.178;21.016;2023-05-07T10:34:56;10.30;99.90
17033;DHT22;63208;52.178;21.016;2023-05-07T10:37:24;10.20;99.90
17033;DHT22;63208;52.178;21.016;2023-05-07T10:39:52;10.10;99.90
17033;DHT22;63208;52.178;21.016;2023-05-07T10:42:19;10.10;99.90
17033;DHT22;63208;52.178;21.016;2023-05-07T10:44:47;10.30;99.90
17033;DHT22;63208;52.178;21.016;2023-05-07T10:47:14;10.40;99.90
17033;DHT22;63208;52.178;21.016;2023-05-07T10:52:30;10.50;99.90
17033;DHT22;63208;52.178;21.016;2023-05-07T10:57:42;10.30;99.90
17033;DHT22;63208;52.178;21.016;2023-05-07T11:03:10;10.50;99.90
17033;DHT22;63208;52.178;21.016;2023-05-07T11:05:37;10.50;99.90
17033;DHT22;63208;52.178;21.016;2023-05-07T11:08:05;10.60;99.90
17033;DHT22;63208;52.178;21.016;2023-05-07T11:10:47;10.50;99.90
17033;DHT22;63208;52.178;21.016;2023-05-07T11:13:14;10.60;99.90
17033;DHT22;63208;52.178;21.016;2023-05-07T11:15:42;10.70;99.90
17033;DHT22;63208;52.178;21.016;2023-05-07T11:18:10;10.80;99.90
17033;DHT22;63208;52.178;21.016;2023-05-07T11:20:46;10.70;99.90
17033;DHT22;63208;52.178;21.016;2023-05-07T11:25:59;10.90;99.90
17033;DHT22;63208;52.178;21.016;2023-05-07T11:28:27;11.10;99.90
17033;DHT22;63208;52.178;21.016;2023-05-07T11:30:54;11.30;99.90
17033;DHT22;63208;52.178;21.016;2023-05-07T11:33:21;11.20;99.90
17033;DHT22;63208;52.178;21.016;2023-05-07T11:35:48;11.10;99.90
17033;DHT22;63208;52.178;21.016;2023-05-07T11:38:18;11.10;99.90
17033;DHT22;63208;52.178;21.016;2023-05-07T11:40:48;11.30;99.90
17033;DHT22;63208;52.178;21.016;2023-05-07T11:43:16;11.30;99.90
17033;DHT22;63208;52.178;21.016;2023-05-07T11:45:44;11.40;99.90
17033;DHT22;63208;52.178;21.016;2023-05-07T11:48:11;11.50;99.90
17033;DHT22;63208;52.178;21.016;2023-05-07T11:50:48;11.60;99.90
17033;DHT22;63208;52.178;21.016;2023-05-07T11:53:16;11.50;99.90
17033;DHT22;63208;52.178;21.016;2023-05-07T11:55:43;11.50;99.90
17033;DHT22;63208;52.178;21.016;2023-05-07T11:58:11;11.60;99.90
17033;DHT22;63208;52.178;21.016;2023-05-07T12:00:40;11.60;99.90
17033;DHT22;63208;52.178;21.016;2023-05-07T12:03:14;11.40;99.90
17033;DHT22;63208;52.178;21.016;2023-05-07T12:05:40;11.40;99.90
17033;DHT22;63208;52.178;21.016;2023-05-07T12:08:08;11.40;99.90
17033;DHT22;63208;52.178;21.016;2023-05-07T12:10:34;11.40;99.90
17033;DHT22;63208;52.178;21.016;2023-05-07T12:13:01;11.30;99.90
17033;DHT22;63208;52.178;21.016;2023-05-07T12:15:28;11.10;99.90
17033;DHT22;63208;52.178;21.016;2023-05-07T12:17:56;11.10;99.90
17033;DHT22;63208;52.178;21.016;2023-05-07T12:20:23;11.10;99.90
17033;DHT22;63208;52.178;21.016;2023-05-07T12:22:50;10.20;99.90
17033;DHT22;63208;52.178;21.016;2023-05-07T12:25:18;11.10;99.90
17033;DHT22;63208;52.178;21.016;2023-05-07T12:27:45;11.30;99.90
17033;DHT22;63208;52.178;21.016;2023-05-07T12:30:17;11.30;99.90
17033;DHT22;63208;52.178;21.016;2023-05-07T12:32:44;11.30;99.90
17033;DHT22;63208;52.178;21.016;2023-05-07T12:35:13;11.40;99.90
17033;DHT22;63208;52.178;21.016;2023-05-07T12:37:40;13.10;99.90
17033;DHT22;63208;52.178;21.016;2023-05-07T12:40:08;11.50;99.90
17033;DHT22;63208;52.178;21.016;2023-05-07T12:42:35;11.50;99.90
17033;DHT22;63208;52.178;21.016;2023-05-07T12:45:07;11.40;99.90
17033;DHT22;63208;52.178;21.016;2023-05-07T12:47:34;11.40;99.90
17033;DHT22;63208;52.178;21.016;2023-05-07T12:50:00;11.30;99.90
17033;DHT22;63208;52.178;21.016;2023-05-07T12:52:28;11.40;99.90
17033;DHT22;63208;52.178;21.016;2023-05-07T12:54:56;12.10;99.90
17033;DHT22;63208;52.178;21.016;2023-05-07T12:57:23;13.00;99.90
17033;DHT22;63208;52.178;21.016;2023-05-07T12:59:50;13.40;99.90
17033;DHT22;63208;52.178;21.016;2023-05-07T13:02:16;13.50;99.90
17033;DHT22;63208;52.178;21.016;2023-05-07T13:04:43;13.70;99.90
17033;DHT22;63208;52.178;21.016;2023-05-07T13:07:10;13.10;99.90
17033;DHT22;63208;52.178;21.016;2023-05-07T13:09:38;12.90;99.90
17033;DHT22;63208;52.178;21.016;2023-05-07T13:12:05;12.70;99.90
17033;DHT22;63208;52.178;21.016;2023-05-07T13:14:32;12.90;99.90
17033;DHT22;63208;52.178;21.016;2023-05-07T13:16:59;12.70;99.90
17033;DHT22;63208;52.178;21.016;2023-05-07T13:19:25;12.70;99.90
17033;DHT22;63208;52.178;21.016;2023-05-07T13:21:52;12.60;99.90
17033;DHT22;63208;52.178;21.016;2023-05-07T13:24:19;12.50;99.90
17033;DHT22;63208;52.178;21.016;2023-05-07T13:26:47;12.40;99.90
17033;DHT22;63208;52.178;21.016;2023-05-07T13:29:14;12.40;99.90
17033;DHT22;63208;52.178;21.016;2023-05-07T13:31:41;12.50;99.90
17033;DHT22;63208;52.178;21.016;2023-05-07T13:34:09;12.30;99.90
17033;DHT22;63208;52.178;21.016;2023-05-07T13:36:36;12.20;99.90
17033;DHT22;63208;52.178;21.016;2023-05-07T13:39:05;12.20;99.90
17033;DHT22;63208;52.178;21.016;2023-05-07T13:41:31;12.10;99.90
17033;DHT22;63208;52.178;21.016;2023-05-07T13:43:59;11.80;99.90
17033;DHT22;63208;52.178;21.016;2023-05-07T13:46:26;12.70;99.90
17033;DHT22;63208;52.178;21.016;2023-05-07T13:48:53;15.50;99.90
17033;DHT22;63208;52.178;21.016;2023-05-07T13:51:20;17.80;99.90
17033;DHT22;63208;52.178;21.016;2023-05-07T13:53:46;19.00;99.90
17033;DHT22;63208;52.178;21.016;2023-05-07T13:56:13;18.70;97.40
17033;DHT22;63208;52.178;21.016;2023-05-07T13:58:40;18.00;97.10
17033;DHT22;63208;52.178;21.016;2023-05-07T14:01:08;17.00;97.30
17033;DHT22;63208;52.178;21.016;2023-05-07T14:03:35;16.00;98.70
17033;DHT22;63208;52.178;21.016;2023-05-07T14:06:04;15.20;99.90
17033;DHT22;63208;52.178;21.016;2023-05-07T14:08:31;16.50;99.50
17033;DHT22;63208;52.178;21.016;2023-05-07T14:10:58;17.60;98.70
17033;DHT22;63208;52.178;21.016;2023-05-07T14:13:25;16.80;97.40
17033;DHT22;63208;52.178;21.016;2023-05-07T14:15:52;16.70;98.70
17033;DHT22;63208;52.178;21.016;2023-05-07T14:18:20;16.50;98.30
17033;DHT22;63208;52.178;21.016;2023-05-07T14:20:47;15.70;98.80
17033;DHT22;63208;52.178;21.016;2023-05-07T14:23:14;15.30;99.60
17033;DHT22;63208;52.178;21.016;2023-05-07T14:25:42;15.20;99.90
17033;DHT22;63208;52.178;21.016;2023-05-07T14:28:10;15.50;99.90
17033;DHT22;63208;52.178;21.016;2023-05-07T14:30:36;15.00;99.90
17033;DHT22;63208;52.178;21.016;2023-05-07T14:33:03;14.90;99.90
17033;DHT22;63208;52.178;21.016;2023-05-07T14:35:31;14.60;99.90
17033;DHT22;63208;52.178;21.016;2023-05-07T14:37:58;15.70;99.90
17033;DHT22;63208;52.178;21.016;2023-05-07T14:40:25;16.30;99.10
17033;DHT22;63208;52.178;21.016;2023-05-07T14:42:51;16.30;98.20
17033;DHT22;63208;52.178;21.016;2023-05-07T14:45:20;15.50;98.50
17033;DHT22;63208;52.178;21.016;2023-05-07T14:47:47;15.00;99.00
17033;DHT22;63208;52.178;21.016;2023-05-07T14:50:14;14.50;99.80
17033;DHT22;63208;52.178;21.016;2023-05-07T14:52:42;14.30;99.30
17033;DHT22;63208;52.178;21.016;2023-05-07T14:55:08;14.10;99.90
17033;DHT22;63208;52.178;21.016;2023-05-07T14:57:35;14.00;99.90
17033;DHT22;63208;52.178;21.016;2023-05-07T15:00:03;13.90;99.90
17033;DHT22;63208;52.178;21.016;2023-05-07T15:02:30;13.90;99.90
17033;DHT22;63208;52.178;21.016;2023-05-07T15:04:57;13.70;99.90
17033;DHT22;63208;52.178;21.016;2023-05-07T15:07:23;13.50;99.90
17033;DHT22;63208;52.178;21.016;2023-05-07T15:09:51;13.40;99.90
17033;DHT22;63208;52.178;21.016;2023-05-07T15:12:18;13.40;99.90
17033;DHT22;63208;52.178;21.016;2023-05-07T15:14:45;13.40;99.90
17033;DHT22;63208;52.178;21.016;2023-05-07T15:17:12;13.50;99.90
17033;DHT22;63208;52.178;21.016;2023-05-07T15:19:40;13.40;99.90
17033;DHT22;63208;52.178;21.016;2023-05-07T15:22:06;13.40;99.90
17033;DHT22;63208;52.178;21.016;2023-05-07T15:24:33;13.50;99.90
17033;DHT22;63208;52.178;21.016;2023-05-07T15:27:02;13.60;99.90
17033;DHT22;63208;52.178;21.016;2023-05-07T15:29:29;13.70;99.90
17033;DHT22;63208;52.178;21.016;2023-05-07T15:31:56;13.50;99.90
17033;DHT22;63208;52.178;21.016;2023-05-07T15:34:22;13.50;99.90
17033;DHT22;63208;52.178;21.016;2023-05-07T15:36:50;13.50;99.90